Time;durP1;ratioP1;P1;durP2;ratioP2;P2;SDS_P1;SDS_P2;PMS_P1;PMS_P2;Temp;Humidity;BMP_temperature;BMP_pressure;BME280_temperature;BME280_humidity;BME280_pressure;Samples;Min_cycle;Max_cycle;Signal;HPM_P1;HPM_P2
2022/11/16 00:01:11;;;;;;;5.75;2.85;;;;;;;0.82;100.00;97883.53;5017272;28;20036;-78
2022/11/16 00:03:37;;;;;;;2.80;1.85;;;;;;;0.70;100.00;97873.59;5016853;28;20044;-82
2022/11/16 00:06:04;;;;;;;4.43;2.20;;;;;;;0.75;100.00;97892.38;5022237;28;20033;-79
2022/11/16 00:08:32;;;;;;;7.30;3.22;;;;;;;0.77;100.00;97899.13;5000123;28;20568;-85
2022/11/16 00:11:06;;;;;;;7.72;3.42;;;;;;;0.82;100.00;97896.75;5035311;28;20045;-77
2022/11/16 00:13:33;;;;;;;5.45;2.55;;;;;;;0.88;100.00;97892.56;4997825;28;21630;-79
2022/11/16 00:16:00;;;;;;;9.10;2.75;;;;;;;0.77;100.00;97888.56;5028516;28;20087;-80
2022/11/16 00:18:25;;;;;;;6.07;2.67;;;;;;;0.77;100.00;97896.50;5021685;28;20040;-81
2022/11/16 00:20:51;;;;;;;8.20;2.75;;;;;;;0.76;100.00;97900.13;5005042;28;20394;-81
2022/11/16 00:23:17;;;;;;;7.68;2.72;;;;;;;0.70;100.00;97892.94;5018071;28;20051;-79
2022/11/16 00:25:42;;;;;;;5.05;2.65;;;;;;;0.68;100.00;97896.75;5025181;28;20391;-80
2022/11/16 00:28:08;;;;;;;8.70;2.63;;;;;;;0.70;100.00;97894.75;5017257;28;20045;-79
2022/11/16 00:30:34;;;;;;;5.03;2.45;;;;;;;0.74;100.00;97903.94;5022437;28;20052;-81
2022/11/16 00:33:00;;;;;;;4.53;2.15;;;;;;;0.75;100.00;97893.19;5024566;28;20029;-79
2022/11/16 00:35:26;;;;;;;3.47;2.55;;;;;;;0.76;100.00;97889.53;5021963;28;20041;-80
2022/11/16 00:37:52;;;;;;;4.13;2.45;;;;;;;0.64;100.00;97875.97;5010103;28;20041;-81
2022/11/16 00:40:18;;;;;;;5.88;2.15;;;;;;;0.64;100.00;97901.59;5007729;28;20033;-80
2022/11/16 00:42:43;;;;;;;4.80;2.13;;;;;;;0.67;100.00;97900.41;5005630;28;20037;-80
2022/11/16 00:45:09;;;;;;;4.35;2.15;;;;;;;0.71;100.00;97897.19;5009395;28;20033;-82
2022/11/16 00:47:35;;;;;;;7.25;2.67;;;;;;;0.72;100.00;97895.41;5022911;28;20036;-80
2022/11/16 00:50:00;;;;;;;3.55;2.17;;;;;;;0.70;100.00;97900.88;5021447;28;20037;-82
2022/11/16 00:52:26;;;;;;;5.13;2.08;;;;;;;0.65;100.00;97893.47;5029274;28;20076;-80
2022/11/16 00:54:52;;;;;;;4.43;2.05;;;;;;;0.59;100.00;97890.75;4992953;28;20418;-81
2022/11/16 00:57:17;;;;;;;4.10;2.17;;;;;;;0.56;100.00;97891.94;5010002;28;20037;-81
2022/11/16 00:59:43;;;;;;;9.38;3.13;;;;;;;0.52;100.00;97884.53;5008703;28;20037;-79
2022/11/16 01:02:09;;;;;;;7.32;2.45;;;;;;;0.62;100.00;97891.19;4990815;28;20073;-78
2022/11/16 01:04:34;;;;;;;4.57;2.33;;;;;;;0.68;100.00;97884.34;5022313;28;20091;-78
2022/11/16 01:07:00;;;;;;;6.32;1.73;;;;;;;0.88;100.00;97890.72;4990135;28;20025;-77
2022/11/16 01:09:25;;;;;;;10.80;3.45;;;;;;;0.85;100.00;97890.28;5008507;28;20025;-78
2022/11/16 01:12:09;;;;;;;9.52;4.13;;;;;;;0.86;100.00;97894.56;5025168;28;20029;-78
2022/11/16 01:14:40;;;;;;;9.93;3.65;;;;;;;0.83;100.00;97894.94;5011464;28;20033;-77
2022/11/16 01:17:07;;;;;;;11.82;3.45;;;;;;;0.75;100.00;97901.13;5022735;28;20502;-77
2022/11/16 01:19:33;;;;;;;6.20;2.45;;;;;;;0.69;100.00;97901.03;5023061;28;20045;-78
2022/11/16 01:21:59;;;;;;;7.50;3.30;;;;;;;0.64;100.00;97907.72;5021741;28;20033;-78
2022/11/16 01:24:27;;;;;;;8.88;3.38;;;;;;;0.52;100.00;97903.88;4990148;28;20128;-83
2022/11/16 01:26:57;;;;;;;6.18;2.90;;;;;;;0.55;100.00;97910.63;4991069;28;20073;-80
2022/11/16 01:29:27;;;;;;;5.93;3.17;;;;;;;0.53;100.00;97900.25;5040377;28;20380;-79
2022/11/16 01:31:54;;;;;;;3.95;2.03;;;;;;;0.52;100.00;97892.47;5007385;28;20159;-79
2022/11/16 01:34:20;;;;;;;9.93;2.92;;;;;;;0.59;100.00;97904.78;5001885;28;20480;-79
2022/11/16 01:36:46;;;;;;;7.03;2.35;;;;;;;0.53;100.00;97899.38;5019403;28;20037;-79
2022/11/16 01:39:12;;;;;;;6.00;2.67;;;;;;;0.37;100.00;97881.88;4991865;28;20041;-79
2022/11/16 01:41:40;;;;;;;4.65;2.33;;;;;;;0.37;100.00;97895.09;5004863;28;20034;-78
2022/11/16 01:44:32;;;;;;;4.13;2.15;;;;;;;0.32;100.00;97893.03;5040187;28;20561;-78
2022/11/16 01:47:02;;;;;;;4.30;1.65;;;;;;;0.15;100.00;97889.69;5011951;28;20048;-81
2022/11/16 01:49:32;;;;;;;3.85;2.05;;;;;;;0.17;100.00;97900.09;5006595;28;20056;-81
2022/11/16 01:52:05;;;;;;;5.47;2.17;;;;;;;0.07;100.00;97887.13;5005045;28;20025;-80
2022/11/16 01:54:35;;;;;;;4.05;1.98;;;;;;;0.22;100.00;97898.56;5007589;28;20042;-81
2022/11/16 01:57:10;;;;;;;2.88;1.67;;;;;;;0.17;100.00;97903.56;5058848;28;20030;-80
2022/11/16 01:59:36;;;;;;;4.22;1.98;;;;;;;0.03;100.00;97903.50;5025094;28;20034;-79
2022/11/16 02:02:02;;;;;;;4.82;2.33;;;;;;;-0.07;100.00;97903.78;5023147;28;20460;-81
2022/11/16 02:04:28;;;;;;;3.90;1.77;;;;;;;-0.14;100.00;97895.72;5007623;28;20112;-79
2022/11/16 02:07:12;;;;;;;3.90;1.75;;;;;;;-0.13;100.00;97900.03;5024387;28;20120;-80
2022/11/16 02:10:18;;;;;;;4.40;1.50;;;;;;;-0.08;100.00;97902.13;5022343;28;20075;-79
2022/11/16 02:13:03;;;;;;;2.47;1.42;;;;;;;-0.19;100.00;97906.00;4990614;28;20052;-79
2022/11/16 02:15:42;;;;;;;2.45;1.40;;;;;;;-0.30;100.00;97898.50;5003268;28;20172;-79
2022/11/16 02:18:55;;;;;;;2.90;1.48;;;;;;;-0.33;100.00;97904.16;5007022;28;20054;-80
2022/11/16 02:21:42;;;;;;;1.88;1.42;;;;;;;-0.39;100.00;97891.66;5014652;28;20461;-79
2022/11/16 02:24:14;;;;;;;1.98;1.20;;;;;;;-0.36;100.00;97891.31;5033048;28;20495;-77
2022/11/16 02:26:56;;;;;;;2.22;1.45;;;;;;;-0.35;100.00;97890.28;5016252;28;20079;-82
2022/11/16 02:29:37;;;;;;;0.50;0.50;;;;;;;-0.36;100.00;97888.66;5050928;28;20505;-80
2022/11/16 02:32:11;;;;;;;2.47;1.75;;;;;;;-0.36;100.00;97872.81;5023615;28;20111;-78
2022/11/16 02:34:42;;;;;;;2.78;1.50;;;;;;;-0.35;100.00;97885.00;5008727;28;20044;-80
2022/11/16 02:37:09;;;;;;;3.13;1.27;;;;;;;-0.38;100.00;97898.56;5005424;28;20422;-79
2022/11/16 02:39:36;;;;;;;3.10;1.20;;;;;;;-0.48;100.00;97891.72;4990677;28;20052;-81
2022/11/16 02:42:03;;;;;;;1.92;1.33;;;;;;;-0.63;100.00;97885.56;5019140;28;20037;-80
2022/11/16 02:44:34;;;;;;;3.88;1.40;;;;;;;-0.55;100.00;97908.44;4992456;28;20041;-79
2022/11/16 02:47:07;;;;;;;2.13;1.27;;;;;;;-0.56;100.00;97912.88;5022805;28;20072;-78
2022/11/16 02:49:39;;;;;;;1.77;1.23;;;;;;;-0.60;100.00;97911.59;5026632;28;20483;-81
2022/11/16 02:52:05;;;;;;;3.60;1.45;;;;;;;-0.59;100.00;97915.03;5005748;28;20034;-80
2022/11/16 02:54:30;;;;;;;1.88;1.38;;;;;;;-0.89;100.00;97875.31;5025300;28;20048;-79
2022/11/16 02:57:02;;;;;;;1.90;1.38;;;;;;;-0.71;100.00;97917.28;5010473;28;20033;-79
2022/11/16 02:59:41;;;;;;;1.10;0.85;;;;;;;-0.71;100.00;97925.19;5009118;28;20037;-79
2022/11/16 03:02:26;;;;;;;1.98;1.38;;;;;;;-0.70;100.00;97914.44;4988980;28;20133;-78
2022/11/16 03:04:58;;;;;;;3.15;1.23;;;;;;;-0.66;100.00;97925.50;4991492;28;20065;-81
2022/11/16 03:07:30;;;;;;;2.88;1.40;;;;;;;-0.67;100.00;97919.38;5022520;28;20087;-81
2022/11/16 03:09:57;;;;;;;1.70;1.25;;;;;;;-0.77;100.00;97916.13;5022009;28;20037;-79
2022/11/16 03:12:27;;;;;;;3.40;1.50;;;;;;;-0.93;100.00;97910.94;5002922;28;20041;-80
2022/11/16 03:15:00;;;;;;;2.08;1.48;;;;;;;-0.91;100.00;97924.78;5020302;28;20026;-78
2022/11/16 03:17:40;;;;;;;3.20;1.73;;;;;;;-0.94;100.00;97935.69;5005288;28;20033;-81
2022/11/16 03:20:10;;;;;;;2.50;1.88;;;;;;;-0.95;100.00;97937.50;5021561;28;20044;-79
2022/11/16 03:22:49;;;;;;;2.80;1.70;;;;;;;-1.03;100.00;97927.00;5004382;28;20091;-80
2022/11/16 03:25:19;;;;;;;2.30;1.27;;;;;;;-0.91;100.00;97949.34;5007606;28;20041;-78
2022/11/16 03:27:57;;;;;;;2.53;1.45;;;;;;;-0.92;100.00;97955.63;5017078;28;20057;-79
2022/11/16 03:30:27;;;;;;;1.40;1.30;;;;;;;-0.87;100.00;97947.19;5024016;28;20037;-79
2022/11/16 03:33:04;;;;;;;2.97;1.92;;;;;;;-0.79;100.00;97965.63;4993222;28;20128;-78
2022/11/16 03:35:33;;;;;;;4.90;2.00;;;;;;;-0.86;100.00;97963.84;5004973;28;20042;-78
2022/11/16 03:38:03;;;;;;;3.88;2.08;;;;;;;-1.02;100.00;97955.00;5022861;28;20124;-80
2022/11/16 03:40:30;;;;;;;3.35;2.35;;;;;;;-0.95;100.00;97965.69;5022875;28;20045;-79
2022/11/16 03:42:57;;;;;;;4.07;2.20;;;;;;;-0.89;100.00;97967.66;5006502;28;20236;-78
2022/11/16 03:45:23;;;;;;;7.28;2.53;;;;;;;-0.97;100.00;97957.13;5006870;28;20480;-83
2022/11/16 03:47:51;;;;;;;4.32;1.90;;;;;;;-0.97;100.00;97965.03;5026765;28;20034;-80
2022/11/16 03:50:17;;;;;;;4.10;1.58;;;;;;;-0.90;100.00;97951.00;5011772;28;20041;-82
2022/11/16 03:52:42;;;;;;;3.55;1.85;;;;;;;-0.74;100.00;97949.25;5026295;28;20039;-80
2022/11/16 03:55:08;;;;;;;2.33;1.60;;;;;;;-0.87;100.00;97947.19;5028469;28;20383;-81
2022/11/16 03:57:34;;;;;;;3.88;1.42;;;;;;;-1.00;100.00;97952.19;5026592;28;20033;-80
2022/11/16 03:59:59;;;;;;;5.13;1.52;;;;;;;-1.07;100.00;97953.88;5026011;28;20025;-81
2022/11/16 04:02:25;;;;;;;1.30;1.10;;;;;;;-1.18;100.00;97937.41;5026008;28;20076;-79
2022/11/16 04:24:19;;;;;;;5.68;1.60;;;;;;;-1.28;100.00;97964.97;5016708;28;20561;-84
2022/11/16 04:29:38;;;;;;;1.55;1.20;;;;;;;-1.26;100.00;97969.09;5019875;28;20041;-82
2022/11/16 04:37:48;;;;;;;1.10;1.00;;;;;;;-1.05;100.00;97957.16;5024108;28;20034;-79
2022/11/16 04:40:19;;;;;;;2.30;1.50;;;;;;;-1.03;100.00;97966.56;5031390;28;20067;-79
2022/11/16 04:42:59;;;;;;;2.00;1.30;;;;;;;-1.08;100.00;97960.97;5024137;28;20631;-80
2022/11/16 04:48:12;;;;;;;1.38;1.13;;;;;;;-1.20;100.00;97963.13;5024872;28;20038;-79
2022/11/16 04:50:38;;;;;;;2.65;1.00;;;;;;;-1.31;100.00;97952.13;5010372;28;20033;-79
2022/11/16 04:53:05;;;;;;;2.55;1.40;;;;;;;-1.39;100.00;97960.88;5018954;28;20038;-78
2022/11/16 04:55:30;;;;;;;2.95;1.13;;;;;;;-1.49;100.00;97947.88;5020972;28;20510;-79
2022/11/16 04:58:03;;;;;;;2.10;1.15;;;;;;;-1.11;100.00;97956.84;5020553;28;20029;-78
2022/11/16 05:00:29;;;;;;;6.07;1.33;;;;;;;-0.94;100.00;97952.31;5007506;28;20642;-78
2022/11/16 05:02:54;;;;;;;1.70;1.13;;;;;;;-0.89;100.00;97957.91;4990114;28;20033;-78
2022/11/16 05:05:20;;;;;;;4.75;1.42;;;;;;;-0.95;100.00;97958.59;5001488;28;20038;-81
2022/11/16 05:07:46;;;;;;;1.52;1.10;;;;;;;-1.00;100.00;97960.94;5024737;28;20116;-80
2022/11/16 05:10:13;;;;;;;3.33;1.60;;;;;;;-0.97;100.00;97973.78;5007345;28;20128;-79
2022/11/16 05:12:39;;;;;;;5.63;1.60;;;;;;;-1.06;100.00;97964.22;5023742;28;20037;-79
2022/11/16 05:15:05;;;;;;;3.03;1.60;;;;;;;-1.12;100.00;97965.72;5012061;28;20079;-80
2022/11/16 05:17:31;;;;;;;3.65;1.48;;;;;;;-1.11;100.00;97971.84;5040551;28;20045;-81
2022/11/16 05:22:41;;;;;;;6.68;1.65;;;;;;;-1.21;100.00;97977.31;5018813;28;20044;-80
2022/11/16 05:25:08;;;;;;;2.83;1.60;;;;;;;-1.22;100.00;97978.28;5026077;28;20046;-80
2022/11/16 05:27:34;;;;;;;1.63;1.23;;;;;;;-1.25;100.00;97980.44;5002058;28;20042;-80
2022/11/16 05:29:59;;;;;;;1.73;1.25;;;;;;;-1.24;100.00;97990.03;5022861;28;20044;-78
2022/11/16 05:32:26;;;;;;;2.35;1.15;;;;;;;-1.21;100.00;97995.78;5011448;28;20164;-80
2022/11/16 05:34:52;;;;;;;2.97;1.40;;;;;;;-1.10;100.00;97991.94;5028462;28;20036;-79
2022/11/16 05:37:19;;;;;;;3.33;1.83;;;;;;;-1.02;100.00;97993.75;5008081;28;20110;-82
2022/11/16 05:39:46;;;;;;;2.90;1.70;;;;;;;-1.03;100.00;97994.72;5028379;28;20116;-84
2022/11/16 05:42:12;;;;;;;4.65;1.92;;;;;;;-1.02;100.00;97999.00;5002506;28;20036;-81
2022/11/16 05:44:38;;;;;;;3.47;1.63;;;;;;;-0.99;100.00;98004.75;5027254;28;20038;-81
2022/11/16 05:47:04;;;;;;;3.60;1.83;;;;;;;-0.99;100.00;98002.13;5009468;28;20095;-82
2022/11/16 05:49:30;;;;;;;1.23;1.13;;;;;;;-1.02;100.00;97999.81;4988356;28;20032;-80
2022/11/16 05:51:55;;;;;;;2.70;1.40;;;;;;;-1.05;100.00;98004.63;5007250;28;20026;-83
2022/11/16 05:54:24;;;;;;;2.65;1.38;;;;;;;-1.03;100.00;98005.25;5006876;28;20294;-82
2022/11/16 05:56:51;;;;;;;2.63;1.70;;;;;;;-1.04;100.00;98001.00;5002112;28;20396;-82
2022/11/16 05:59:19;;;;;;;5.70;1.60;;;;;;;-1.13;100.00;97998.38;5015302;28;20030;-80
2022/11/16 06:01:46;;;;;;;2.78;1.48;;;;;;;-1.41;100.00;97970.75;5017314;28;20029;-80
2022/11/16 06:04:13;;;;;;;1.73;1.40;;;;;;;-1.23;100.00;98002.19;5028098;28;20178;-81
2022/11/16 06:06:39;;;;;;;4.38;1.65;;;;;;;-1.22;100.00;98009.91;5006032;28;20038;-80
2022/11/16 06:09:05;;;;;;;5.38;1.77;;;;;;;-1.25;100.00;98006.81;4987124;28;20041;-81
2022/11/16 06:11:32;;;;;;;4.13;1.63;;;;;;;-1.45;100.00;97969.47;5022614;28;20046;-81
2022/11/16 06:13:57;;;;;;;2.05;1.40;;;;;;;-1.43;100.00;97980.66;5021538;28;20029;-81
2022/11/16 06:16:23;;;;;;;2.38;1.65;;;;;;;-1.31;100.00;97999.59;5007745;28;20376;-81
2022/11/16 06:18:49;;;;;;;1.52;1.15;;;;;;;-1.31;100.00;97999.59;4993461;28;20041;-82
2022/11/16 06:21:16;;;;;;;3.30;1.20;;;;;;;-1.28;100.00;98004.50;5016136;28;20025;-82
2022/11/16 06:23:42;;;;;;;3.55;1.73;;;;;;;-1.45;100.00;97982.66;5002634;28;20060;-79
2022/11/16 06:26:08;;;;;;;3.70;1.58;;;;;;;-1.26;100.00;98010.44;5048455;28;20464;-79
2022/11/16 06:28:35;;;;;;;2.17;1.42;;;;;;;-1.21;100.00;98014.22;5001987;28;20136;-79
2022/11/16 06:31:01;;;;;;;2.08;1.30;;;;;;;-1.19;100.00;97999.06;5032407;28;20038;-79
2022/11/16 06:33:27;;;;;;;2.75;1.30;;;;;;;-1.08;100.00;98011.06;5013873;28;20021;-78
2022/11/16 06:35:52;;;;;;;2.25;1.40;;;;;;;-1.03;100.00;98010.53;5052323;28;20511;-79
2022/11/16 06:38:19;;;;;;;1.77;1.40;;;;;;;-1.03;100.00;98011.38;5058129;28;20053;-80
2022/11/16 06:40:45;;;;;;;3.58;1.48;;;;;;;-1.07;100.00;98012.69;5015814;28;20552;-80
2022/11/16 06:43:16;;;;;;;2.03;1.33;;;;;;;-1.15;100.00;98010.91;5020880;28;20052;-80
2022/11/16 06:45:42;;;;;;;2.00;1.45;;;;;;;-1.19;100.00;98022.78;5014038;28;20909;-79
2022/11/16 06:48:08;;;;;;;1.92;1.45;;;;;;;-1.27;100.00;98012.28;5019117;28;20472;-79
2022/11/16 06:50:34;;;;;;;1.10;1.00;;;;;;;-1.31;100.00;98015.41;5018479;28;20034;-79
2022/11/16 06:52:59;;;;;;;3.72;1.50;;;;;;;-1.37;100.00;97995.81;5016545;28;20042;-78
2022/11/16 06:55:28;;;;;;;4.32;1.65;;;;;;;-1.28;100.00;98001.88;5021447;28;20049;-79
2022/11/16 06:57:53;;;;;;;5.40;1.30;;;;;;;-1.31;100.00;98002.22;5003213;28;20124;-85
2022/11/16 07:00:19;;;;;;;3.17;1.55;;;;;;;-1.35;100.00;97997.28;5019414;28;20116;-80
2022/11/16 07:02:45;;;;;;;1.98;1.08;;;;;;;-1.46;100.00;97991.53;4989384;28;20068;-79
2022/11/16 07:05:11;;;;;;;3.70;1.60;;;;;;;-1.60;100.00;97979.84;5006629;28;20100;-84
2022/11/16 07:07:36;;;;;;;2.10;1.58;;;;;;;-1.46;100.00;97994.16;5013308;28;20555;-84
2022/11/16 07:10:03;;;;;;;3.30;1.40;;;;;;;-1.54;100.00;97984.44;5018667;28;20041;-81
2022/11/16 07:12:28;;;;;;;1.80;1.33;;;;;;;-1.66;100.00;97991.88;5015257;28;20103;-79
2022/11/16 07:14:54;;;;;;;2.40;1.38;;;;;;;-1.77;100.00;97997.50;4984892;28;20472;-82
2022/11/16 07:17:21;;;;;;;3.13;1.67;;;;;;;-1.81;100.00;97999.63;4983786;28;20034;-81
2022/11/16 07:19:46;;;;;;;1.67;1.10;;;;;;;-1.80;100.00;98001.28;5007655;28;20057;-81
2022/11/16 07:22:12;;;;;;;2.45;1.48;;;;;;;-1.71;100.00;97998.66;5009735;28;20124;-81
2022/11/16 07:24:37;;;;;;;1.00;1.00;;;;;;;-1.60;100.00;98003.56;5013093;28;20030;-81
2022/11/16 07:27:03;;;;;;;2.08;1.20;;;;;;;-1.41;100.00;97997.94;5007509;28;20045;-82
2022/11/16 07:29:30;;;;;;;3.80;1.35;;;;;;;-1.26;100.00;97999.91;5019893;28;20029;-81
2022/11/16 07:31:56;;;;;;;1.95;1.25;;;;;;;-1.23;100.00;98000.38;5012052;28;20099;-82
2022/11/16 07:34:23;;;;;;;2.80;1.20;;;;;;;-1.29;100.00;98010.78;4998323;28;20399;-80
2022/11/16 07:36:49;;;;;;;2.22;1.40;;;;;;;-1.41;100.00;98000.56;5013667;28;20059;-81
2022/11/16 07:39:14;;;;;;;2.10;1.20;;;;;;;-1.45;100.00;98006.38;5016088;28;20499;-81
2022/11/16 07:41:41;;;;;;;2.08;1.23;;;;;;;-1.54;100.00;97995.00;4997539;28;20025;-80
2022/11/16 07:44:07;;;;;;;2.38;1.25;;;;;;;-1.51;100.00;98001.75;5031564;28;20041;-81
2022/11/16 07:46:33;;;;;;;5.28;1.92;;;;;;;-1.61;100.00;98000.13;5027438;28;20387;-80
2022/11/16 07:48:59;;;;;;;3.63;1.80;;;;;;;-1.59;100.00;97998.16;5024077;28;20727;-80
2022/11/16 07:51:24;;;;;;;3.60;1.70;;;;;;;-1.55;100.00;98003.91;5027250;28;20064;-79
2022/11/16 07:53:56;;;;;;;4.28;2.00;;;;;;;-1.60;100.00;98011.47;5026011;28;20037;-82
2022/11/16 07:56:23;;;;;;;12.25;3.35;;;;;;;-1.67;100.00;98016.56;5021321;28;20124;-80
2022/11/16 07:58:48;;;;;;;3.05;1.63;;;;;;;-1.69;100.00;98009.81;5033605;28;20117;-79
2022/11/16 08:01:15;;;;;;;4.72;1.50;;;;;;;-1.59;100.00;98013.09;4991246;28;20132;-80
2022/11/16 08:03:42;;;;;;;2.40;1.50;;;;;;;-1.64;100.00;97999.59;5029389;28;20051;-80
2022/11/16 08:06:16;;;;;;;2.13;1.48;;;;;;;-1.58;100.00;98012.97;5060063;28;20040;-79
2022/11/16 08:08:42;;;;;;;2.95;1.63;;;;;;;-1.49;100.00;98015.59;5045029;28;20025;-80
2022/11/16 08:11:09;;;;;;;4.03;2.00;;;;;;;-1.34;100.00;98038.47;5027671;28;20554;-81
2022/11/16 08:13:36;;;;;;;4.90;1.95;;;;;;;-1.29;100.00;98052.97;5029331;28;20049;-80
2022/11/16 08:16:21;;;;;;;4.78;1.73;;;;;;;-1.35;100.00;98052.66;5017523;28;20037;-80
2022/11/16 08:18:46;;;;;;;2.38;1.48;;;;;;;-1.37;100.00;98046.72;5008568;28;20112;-80
2022/11/16 08:21:14;;;;;;;2.58;1.35;;;;;;;-1.28;100.00;98062.50;5062293;28;20129;-81
2022/11/16 08:23:40;;;;;;;6.03;2.08;;;;;;;-1.28;100.00;98042.25;5023032;28;20026;-82
2022/11/16 08:26:13;;;;;;;6.90;3.60;;;;;;;-1.01;100.00;98048.94;5039422;28;20044;-85
2022/11/16 08:28:39;;;;;;;2.00;1.27;;;;;;;-0.81;100.00;98053.84;4997269;28;20033;-80
2022/11/16 08:31:13;;;;;;;4.13;1.85;;;;;;;-0.71;100.00;98049.19;5010394;28;20088;-81
2022/11/16 08:33:38;;;;;;;5.63;1.83;;;;;;;-0.62;100.00;98063.19;5011564;28;20037;-82
2022/11/16 08:36:05;;;;;;;3.65;1.55;;;;;;;-0.60;100.00;98053.28;5043270;28;20490;-82
2022/11/16 08:38:31;;;;;;;5.53;1.83;;;;;;;-0.63;100.00;98038.63;5006243;28;20045;-80
2022/11/16 08:40:57;;;;;;;4.78;1.95;;;;;;;-0.51;100.00;98045.13;5011463;28;20495;-80
2022/11/16 08:43:23;;;;;;;3.35;1.85;;;;;;;-0.48;100.00;98051.91;5024722;28;20454;-81
2022/11/16 08:45:48;;;;;;;4.75;1.85;;;;;;;-0.39;100.00;98063.25;5011807;28;20048;-81
2022/11/16 08:48:14;;;;;;;2.50;1.48;;;;;;;-0.37;100.00;98055.97;5006067;28;20038;-83
2022/11/16 08:50:40;;;;;;;3.78;1.65;;;;;;;-0.29;100.00;98063.84;5023394;28;20096;-82
2022/11/16 08:53:06;;;;;;;3.55;1.55;;;;;;;-0.15;100.00;98060.47;4996387;28;20119;-80
2022/11/16 08:55:32;;;;;;;2.08;1.25;;;;;;;0.08;100.00;98057.88;5027183;28;20279;-80
2022/11/16 08:57:58;;;;;;;2.33;1.38;;;;;;;0.28;100.00;98045.00;5025120;28;20092;-79
2022/11/16 09:00:23;;;;;;;5.35;1.98;;;;;;;0.51;100.00;98045.00;5022258;28;20708;-79
2022/11/16 09:02:49;;;;;;;4.70;1.60;;;;;;;0.67;100.00;98032.66;5032119;28;20039;-79
2022/11/16 09:05:15;;;;;;;3.00;1.63;;;;;;;1.30;100.00;98023.38;5024000;28;20371;-81
2022/11/16 09:07:43;;;;;;;1.95;1.25;;;;;;;2.18;100.00;98022.31;5024616;28;20556;-83
2022/11/16 09:10:09;;;;;;;2.75;1.67;;;;;;;2.71;100.00;97997.28;5003695;28;20473;-86
2022/11/16 09:12:35;;;;;;;2.60;1.50;;;;;;;3.41;100.00;98016.66;5025527;28;20123;-84
2022/11/16 09:15:02;;;;;;;5.00;1.92;;;;;;;3.89;100.00;98016.66;5015358;28;20038;-84
2022/11/16 09:17:28;;;;;;;2.30;1.65;;;;;;;4.57;100.00;98008.56;5007837;28;20034;-83
2022/11/16 09:19:54;;;;;;;1.58;1.02;;;;;;;5.26;100.00;97999.25;4998553;28;20268;-83
2022/11/16 09:22:19;;;;;;;1.45;1.30;;;;;;;5.81;100.00;98002.34;5014221;28;20119;-84
2022/11/16 09:24:45;;;;;;;3.63;1.52;;;;;;;6.60;100.00;98016.25;5031982;28;20459;-84
2022/11/16 09:27:11;;;;;;;1.92;1.25;;;;;;;6.26;100.00;98006.84;5028184;28;20041;-83
2022/11/16 09:29:36;;;;;;;1.85;1.15;;;;;;;6.20;100.00;98000.50;5045256;28;20052;-83
2022/11/16 09:32:02;;;;;;;3.88;1.17;;;;;;;6.41;100.00;98007.34;5030403;28;20365;-84
2022/11/16 09:34:28;;;;;;;4.97;1.33;;;;;;;6.89;100.00;97995.25;5047280;28;20438;-84
2022/11/16 09:36:54;;;;;;;4.75;1.10;;;;;;;7.96;100.00;97989.50;5031394;28;20032;-84
2022/11/16 09:39:21;;;;;;;0.85;0.85;;;;;;;8.99;95.34;97982.97;5047956;28;20340;-88
2022/11/16 09:42:07;;;;;;;5.25;1.90;;;;;;;9.81;91.57;97977.44;5040213;28;20389;-82
2022/11/16 09:45:07;;;;;;;3.67;1.80;;;;;;;10.80;89.77;98000.44;5021196;28;20045;-86
2022/11/16 09:47:44;;;;;;;3.78;1.98;;;;;;;11.89;86.34;97990.91;5009392;28;20108;-83
2022/11/16 09:50:24;;;;;;;4.05;1.67;;;;;;;12.63;82.26;97979.50;5032381;28;20052;-83
2022/11/16 09:52:54;;;;;;;1.95;1.35;;;;;;;13.05;79.87;97972.53;5035101;28;20053;-84
2022/11/16 09:55:24;;;;;;;4.82;1.73;;;;;;;13.23;77.49;97942.44;4992907;28;20044;-84
2022/11/16 09:57:51;;;;;;;2.65;1.20;;;;;;;13.60;76.76;97977.47;5011125;28;20461;-84
2022/11/16 10:00:21;;;;;;;2.28;1.10;;;;;;;13.94;75.66;97968.91;4995534;28;20099;-84
2022/11/16 10:02:50;;;;;;;3.35;1.40;;;;;;;14.12;75.38;97966.81;5007865;28;20064;-84
2022/11/16 10:05:24;;;;;;;2.65;1.40;;;;;;;14.44;74.78;97978.19;5013900;28;20116;-84
2022/11/16 10:07:56;;;;;;;8.43;3.33;;;;;;;14.78;74.71;97972.28;5013660;28;20127;-83
2022/11/16 10:10:32;;;;;;;7.80;2.00;;;;;;;15.10;73.12;97963.88;4997260;28;20033;-84
2022/11/16 10:13:14;;;;;;;5.85;1.73;;;;;;;15.25;72.94;97964.94;4992455;28;20053;-83
2022/11/16 10:16:15;;;;;;;4.47;1.70;;;;;;;15.58;74.81;97955.34;5023828;28;20048;-84
2022/11/16 10:18:56;;;;;;;3.40;1.75;;;;;;;16.02;72.24;97935.66;5023145;28;20099;-85
2022/11/16 10:21:29;;;;;;;3.75;1.45;;;;;;;15.93;69.93;97954.41;5002600;28;20063;-86
2022/11/16 10:24:05;;;;;;;5.95;2.17;;;;;;;15.75;71.42;97949.63;5011925;28;20047;-84
2022/11/16 10:26:37;;;;;;;4.00;1.88;;;;;;;15.70;69.68;97950.44;5008321;28;20025;-85
2022/11/16 10:29:33;;;;;;;3.03;1.30;;;;;;;14.94;75.10;97943.34;5001821;28;20307;-85
2022/11/16 10:32:27;;;;;;;5.60;1.50;;;;;;;14.43;76.94;97948.75;5028419;28;20371;-84
2022/11/16 10:34:55;;;;;;;5.55;1.85;;;;;;;14.91;75.80;97952.81;4996631;28;20033;-84
2022/11/16 10:37:22;;;;;;;2.83;1.60;;;;;;;15.73;74.95;97957.22;5026434;28;20049;-86
2022/11/16 10:39:51;;;;;;;3.97;1.40;;;;;;;16.06;71.13;97955.66;5012907;28;20029;-86
2022/11/16 10:42:39;;;;;;;2.63;1.30;;;;;;;15.49;71.45;97957.00;4996353;28;20033;-85
2022/11/16 10:45:15;;;;;;;3.92;1.67;;;;;;;15.34;72.33;97955.97;5046066;28;20068;-84
2022/11/16 10:47:49;;;;;;;2.60;1.58;;;;;;;15.43;73.23;97939.13;5025773;28;20034;-85
2022/11/16 10:50:20;;;;;;;3.92;1.35;;;;;;;15.76;74.96;97962.88;5009747;28;20049;-84
2022/11/16 10:52:46;;;;;;;4.93;1.63;;;;;;;15.43;75.28;97948.09;5034925;28;20041;-85
2022/11/16 10:55:15;;;;;;;5.18;1.70;;;;;;;14.31;79.38;97946.28;5004089;28;20104;-83
2022/11/16 10:58:07;;;;;;;10.43;1.70;;;;;;;14.17;81.71;97948.72;5012783;28;20498;-84
2022/11/16 11:00:41;;;;;;;3.78;1.35;;;;;;;13.22;85.10;97927.31;5009624;28;20049;-84
2022/11/16 11:03:09;;;;;;;4.28;1.20;;;;;;;12.73;88.65;97931.06;5028672;28;20060;-84
2022/11/16 11:05:35;;;;;;;3.40;1.67;;;;;;;12.28;90.54;97937.72;5026980;28;20140;-83
2022/11/16 11:08:09;;;;;;;5.10;1.55;;;;;;;12.18;89.64;97902.59;5011819;28;20217;-84
2022/11/16 11:10:36;;;;;;;;;;;;;;;12.63;87.93;97925.59;5030656;28;20091;-84
2022/11/16 11:13:10;;;;;;;2.08;1.35;;;;;;;12.63;85.32;97903.22;4991404;28;20393;-84
2022/11/16 11:15:43;;;;;;;4.88;1.70;;;;;;;12.25;89.69;97932.84;5026056;28;20052;-86
2022/11/16 11:18:22;;;;;;;5.47;1.67;;;;;;;12.16;90.01;97923.59;5020459;28;20492;-84
2022/11/16 11:21:08;;;;;;;3.83;1.50;;;;;;;12.19;91.24;97924.97;5019263;28;20372;-85
2022/11/16 11:23:52;;;;;;;6.50;3.70;;;;;;;12.76;88.81;97925.16;5028657;28;20127;-85
2022/11/16 11:26:38;;;;;;;8.18;1.88;;;;;;;13.14;87.90;97936.69;4990997;28;20040;-87
2022/11/16 11:29:29;;;;;;;5.72;2.42;;;;;;;13.20;88.50;97927.59;5012786;28;20045;-89
2022/11/16 11:32:02;;;;;;;4.18;1.98;;;;;;;14.02;86.12;97927.06;5034166;28;20073;-85
2022/11/16 11:34:34;;;;;;;4.22;2.13;;;;;;;14.12;85.17;97926.28;5047459;28;20101;-85
2022/11/16 11:37:03;;;;;;;5.15;2.70;;;;;;;15.59;80.76;97908.22;4992270;28;20038;-85
2022/11/16 11:39:35;;;;;;;3.97;1.90;;;;;;;16.39;78.21;97918.06;5036696;28;20079;-86
2022/11/16 11:42:11;;;;;;;4.90;1.40;;;;;;;16.04;78.19;97895.53;4996749;28;20037;-86
2022/11/16 11:44:39;;;;;;;8.98;4.00;;;;;;;14.22;84.10;97924.41;5035685;28;20044;-89
2022/11/16 11:47:17;;;;;;;8.30;3.47;;;;;;;13.71;85.88;97921.59;5025423;28;20118;-86
2022/11/16 11:49:51;;;;;;;4.53;1.80;;;;;;;13.72;85.69;97922.41;5011547;28;20580;-86
2022/11/16 11:52:26;;;;;;;3.85;1.52;;;;;;;11.57;93.63;97907.34;5013076;28;20072;-85
2022/11/16 11:54:53;;;;;;;3.15;1.52;;;;;;;10.13;100.00;97920.56;5015107;28;20041;-85
2022/11/16 11:57:21;;;;;;;6.20;3.08;;;;;;;10.24;100.00;97916.19;5012367;28;20033;-86
2022/11/16 11:59:49;;;;;;;8.38;4.22;;;;;;;11.88;97.20;97909.34;5010786;28;20040;-87
2022/11/16 12:02:28;;;;;;;6.47;2.10;;;;;;;11.81;96.41;97895.22;5009556;28;20065;-85
2022/11/16 12:04:59;;;;;;;5.20;1.48;;;;;;;12.32;94.42;97903.78;5018165;28;20064;-87
2022/11/16 12:07:34;;;;;;;6.63;1.20;;;;;;;12.87;92.81;97899.06;5031197;28;20038;-85
2022/11/16 12:10:12;;;;;;;2.67;1.40;;;;;;;13.89;88.38;97906.78;5029780;28;20029;-86
2022/11/16 12:12:55;;;;;;;4.80;1.27;;;;;;;14.27;88.44;97902.78;5027182;28;20026;-86
2022/11/16 12:15:49;;;;;;;6.28;2.08;;;;;;;14.66;87.73;97890.63;5013267;28;20492;-87